Pagrindinis puslapis
METAR-TAF:

METAR-TAF

Oro uostai :

Hohhot, Kinija

platuma: 40-49N, ilguma: 111-41E, Aukštis: 1065 m

Dabartinis oras

Ataskaita buvo paskelbta 26 minutes, ne 16:00 UTC
Vėjas 4 kt iš Rytų/Šiaurės Rytų
Temperatūra 1°C
Drėgmė 86%
Slėgis 1015 hPa
Matomumas: 5000 m
rūkana

METAR: ZBHH 291600Z 07002MPS 5000 BR NSC 01/M01 Q1015 NOSIG

Laikas: 00:26 (16:26 UTC)

Prognozė

Ataskaita buvo paskelbta 7 valandos ir 24 minutes, ne 09:02 UTC
Prognozė galioja nuo 29 metu 12 UTC su 30 metu 12 UTC
Vėjas 8 kt iš Pietvakarių
Matomumas 10 km arba daugiau
Mažai debesys ne aukštis 4000 ft

TAF: ZBHH 290902Z 2912/3012 23004MPS 9999 FEW040 TX15/3007Z TN02/2923Z

Orai ataskaitas ir orų prognozės (METAR, TAF).

turimą stotys yra geltonos ir raudonos taškus žemėlapyje.

Perkelti pele per norėdami pamatyti stoties vardą.

Tada spustelėkite, norėdami matyti oro stebėjimo ir prognozės.

Norėdami pakeisti žemėlapį: spustelėkite ant žalios mygtukų su juodo kryžiaus žemyn,; žalią mygtuką su brūkšneliu, jei norite nutolinti; arba žalių rodyklių gretimoms žemėlapius.


METAR-TAF: